sensor_id;sensor_type;location;lat;lon;timestamp;pressure;altitude;pressure_sealevel;temperature;humidity
6464;BME280;3265;42.694;23.282;2022-09-27T00:02:05;93786.41;;;16.29;100.00
6464;BME280;3265;42.694;23.282;2022-09-27T00:04:32;93795.56;;;16.31;100.00
6464;BME280;3265;42.694;23.282;2022-09-27T00:06:59;93788.97;;;16.34;100.00
6464;BME280;3265;42.694;23.282;2022-09-27T00:09:27;93770.56;;;16.10;100.00
6464;BME280;3265;42.694;23.282;2022-09-27T00:11:54;93775.56;;;16.07;100.00
6464;BME280;3265;42.694;23.282;2022-09-27T00:14:21;93770.00;;;16.13;100.00
6464;BME280;3265;42.694;23.282;2022-09-27T00:16:48;93791.25;;;16.12;100.00
6464;BME280;3265;42.694;23.282;2022-09-27T00:19:19;93801.88;;;15.92;100.00
6464;BME280;3265;42.694;23.282;2022-09-27T00:21:47;93806.53;;;16.00;100.00
6464;BME280;3265;42.694;23.282;2022-09-27T00:24:15;93821.00;;;15.92;100.00
6464;BME280;3265;42.694;23.282;2022-09-27T00:26:43;93801.25;;;15.61;100.00
6464;BME280;3265;42.694;23.282;2022-09-27T00:29:12;93813.34;;;15.42;100.00
6464;BME280;3265;42.694;23.282;2022-09-27T00:31:39;93810.72;;;15.42;100.00
6464;BME280;3265;42.694;23.282;2022-09-27T00:34:06;93812.53;;;15.56;100.00
6464;BME280;3265;42.694;23.282;2022-09-27T00:36:37;93776.09;;;15.60;100.00
6464;BME280;3265;42.694;23.282;2022-09-27T00:39:04;93765.16;;;15.43;100.00
6464;BME280;3265;42.694;23.282;2022-09-27T00:41:32;93770.94;;;15.40;100.00
6464;BME280;3265;42.694;23.282;2022-09-27T00:44:01;93757.34;;;15.32;100.00
6464;BME280;3265;42.694;23.282;2022-09-27T00:46:32;93750.31;;;15.28;100.00
6464;BME280;3265;42.694;23.282;2022-09-27T00:49:05;93750.88;;;15.20;100.00
6464;BME280;3265;42.694;23.282;2022-09-27T00:51:34;93741.13;;;15.30;100.00
6464;BME280;3265;42.694;23.282;2022-09-27T00:54:06;93751.84;;;15.34;100.00
6464;BME280;3265;42.694;23.282;2022-09-27T00:56:36;93740.31;;;15.40;100.00
6464;BME280;3265;42.694;23.282;2022-09-27T00:59:08;93731.38;;;15.46;100.00
6464;BME280;3265;42.694;23.282;2022-09-27T01:01:37;93744.47;;;15.46;100.00
6464;BME280;3265;42.694;23.282;2022-09-27T01:04:07;93745.78;;;15.44;100.00
6464;BME280;3265;42.694;23.282;2022-09-27T01:06:35;93760.69;;;15.53;100.00
6464;BME280;3265;42.694;23.282;2022-09-27T01:09:03;93747.09;;;15.51;100.00
6464;BME280;3265;42.694;23.282;2022-09-27T01:11:41;93761.69;;;15.62;100.00
6464;BME280;3265;42.694;23.282;2022-09-27T01:14:34;93750.94;;;15.64;100.00
6464;BME280;3265;42.694;23.282;2022-09-27T01:17:15;93748.56;;;15.67;100.00
6464;BME280;3265;42.694;23.282;2022-09-27T01:20:19;93743.06;;;15.69;100.00
6464;BME280;3265;42.694;23.282;2022-09-27T01:23:01;93714.56;;;15.57;100.00
6464;BME280;3265;42.694;23.282;2022-09-27T01:25:42;93738.41;;;15.61;100.00
6464;BME280;3265;42.694;23.282;2022-09-27T01:28:32;93764.34;;;15.57;100.00
6464;BME280;3265;42.694;23.282;2022-09-27T01:31:14;93755.66;;;15.62;100.00
6464;BME280;3265;42.694;23.282;2022-09-27T01:33:48;93744.44;;;15.56;100.00
6464;BME280;3265;42.694;23.282;2022-09-27T01:36:22;93756.94;;;15.64;100.00
6464;BME280;3265;42.694;23.282;2022-09-27T01:38:59;93748.34;;;15.59;100.00
6464;BME280;3265;42.694;23.282;2022-09-27T01:41:34;93748.91;;;15.46;100.00
6464;BME280;3265;42.694;23.282;2022-09-27T01:44:04;93755.97;;;15.45;100.00
6464;BME280;3265;42.694;23.282;2022-09-27T01:46:36;93749.97;;;15.45;100.00
6464;BME280;3265;42.694;23.282;2022-09-27T01:49:09;93746.56;;;15.44;100.00
6464;BME280;3265;42.694;23.282;2022-09-27T01:51:41;93744.75;;;15.40;100.00
6464;BME280;3265;42.694;23.282;2022-09-27T01:54:18;93759.19;;;15.27;100.00
6464;BME280;3265;42.694;23.282;2022-09-27T01:56:49;93743.34;;;14.98;100.00
6464;BME280;3265;42.694;23.282;2022-09-27T01:59:21;93737.09;;;14.89;100.00
6464;BME280;3265;42.694;23.282;2022-09-27T02:01:51;93731.84;;;14.99;100.00
6464;BME280;3265;42.694;23.282;2022-09-27T02:04:22;93734.97;;;15.06;100.00
6464;BME280;3265;42.694;23.282;2022-09-27T02:06:53;93725.50;;;15.10;100.00
6464;BME280;3265;42.694;23.282;2022-09-27T02:09:26;93727.84;;;15.17;100.00
6464;BME280;3265;42.694;23.282;2022-09-27T02:11:59;93705.84;;;15.23;100.00
6464;BME280;3265;42.694;23.282;2022-09-27T02:14:33;93702.47;;;15.17;100.00
6464;BME280;3265;42.694;23.282;2022-09-27T02:17:09;93707.63;;;15.27;100.00
6464;BME280;3265;42.694;23.282;2022-09-27T02:19:40;93700.53;;;15.38;100.00
6464;BME280;3265;42.694;23.282;2022-09-27T02:22:15;93691.59;;;15.39;100.00
6464;BME280;3265;42.694;23.282;2022-09-27T02:24:51;93677.50;;;15.35;100.00
6464;BME280;3265;42.694;23.282;2022-09-27T02:27:23;93674.31;;;15.43;100.00
6464;BME280;3265;42.694;23.282;2022-09-27T02:29:56;93665.41;;;15.39;100.00
6464;BME280;3265;42.694;23.282;2022-09-27T02:32:25;93658.06;;;15.41;100.00
6464;BME280;3265;42.694;23.282;2022-09-27T02:34:53;93662.25;;;15.42;100.00
6464;BME280;3265;42.694;23.282;2022-09-27T02:37:22;93666.94;;;15.45;100.00
6464;BME280;3265;42.694;23.282;2022-09-27T02:39:49;93658.84;;;15.52;100.00
6464;BME280;3265;42.694;23.282;2022-09-27T02:42:16;93652.25;;;15.54;100.00
6464;BME280;3265;42.694;23.282;2022-09-27T02:44:43;93658.06;;;15.46;100.00
6464;BME280;3265;42.694;23.282;2022-09-27T02:47:30;93674.03;;;15.45;100.00
6464;BME280;3265;42.694;23.282;2022-09-27T02:50:15;93695.00;;;15.50;100.00
6464;BME280;3265;42.694;23.282;2022-09-27T02:52:51;93688.44;;;15.42;100.00
6464;BME280;3265;42.694;23.282;2022-09-27T02:55:27;93681.91;;;15.40;100.00
6464;BME280;3265;42.694;23.282;2022-09-27T02:58:06;93684.56;;;15.29;100.00
6464;BME280;3265;42.694;23.282;2022-09-27T03:00:40;93668.34;;;15.32;100.00
6464;BME280;3265;42.694;23.282;2022-09-27T03:03:18;93663.88;;;15.33;100.00
6464;BME280;3265;42.694;23.282;2022-09-27T03:05:50;93654.41;;;15.42;100.00
6464;BME280;3265;42.694;23.282;2022-09-27T03:08:19;93631.97;;;15.31;100.00
6464;BME280;3265;42.694;23.282;2022-09-27T03:10:46;93641.41;;;15.27;100.00
6464;BME280;3265;42.694;23.282;2022-09-27T03:13:13;93637.47;;;15.29;100.00
6464;BME280;3265;42.694;23.282;2022-09-27T03:15:40;93618.97;;;15.16;100.00
6464;BME280;3265;42.694;23.282;2022-09-27T03:18:07;93612.81;;;14.97;100.00
6464;BME280;3265;42.694;23.282;2022-09-27T03:20:35;93607.41;;;14.78;100.00
6464;BME280;3265;42.694;23.282;2022-09-27T03:23:02;93610.22;;;14.87;100.00
6464;BME280;3265;42.694;23.282;2022-09-27T03:25:29;93594.06;;;14.80;100.00
6464;BME280;3265;42.694;23.282;2022-09-27T03:27:56;93608.66;;;14.91;100.00
6464;BME280;3265;42.694;23.282;2022-09-27T03:30:22;93603.91;;;14.98;100.00
6464;BME280;3265;42.694;23.282;2022-09-27T03:32:49;93617.69;;;15.13;100.00
6464;BME280;3265;42.694;23.282;2022-09-27T03:35:16;93619.22;;;15.19;100.00
6464;BME280;3265;42.694;23.282;2022-09-27T03:37:44;93615.47;;;15.30;100.00
6464;BME280;3265;42.694;23.282;2022-09-27T03:40:12;93613.09;;;15.34;100.00
6464;BME280;3265;42.694;23.282;2022-09-27T03:42:39;93614.38;;;15.37;100.00
6464;BME280;3265;42.694;23.282;2022-09-27T03:45:06;93595.81;;;15.38;100.00
6464;BME280;3265;42.694;23.282;2022-09-27T03:47:34;93616.19;;;15.41;100.00
6464;BME280;3265;42.694;23.282;2022-09-27T03:50:00;93606.22;;;15.43;100.00
6464;BME280;3265;42.694;23.282;2022-09-27T03:52:27;93619.31;;;15.43;100.00
6464;BME280;3265;42.694;23.282;2022-09-27T03:54:56;93626.63;;;15.46;100.00
6464;BME280;3265;42.694;23.282;2022-09-27T03:57:22;93604.91;;;15.46;100.00
6464;BME280;3265;42.694;23.282;2022-09-27T03:59:49;93609.56;;;15.54;100.00
6464;BME280;3265;42.694;23.282;2022-09-27T04:02:17;93607.44;;;15.56;100.00
6464;BME280;3265;42.694;23.282;2022-09-27T04:04:44;93602.19;;;15.61;100.00
6464;BME280;3265;42.694;23.282;2022-09-27T04:07:11;93613.66;;;15.65;100.00
6464;BME280;3265;42.694;23.282;2022-09-27T04:09:37;93606.16;;;15.58;100.00
6464;BME280;3265;42.694;23.282;2022-09-27T04:12:07;93606.50;;;15.47;100.00
6464;BME280;3265;42.694;23.282;2022-09-27T04:14:34;93615.91;;;15.43;100.00
6464;BME280;3265;42.694;23.282;2022-09-27T04:17:01;93608.91;;;15.38;100.00
6464;BME280;3265;42.694;23.282;2022-09-27T04:19:28;93610.44;;;15.39;100.00
6464;BME280;3265;42.694;23.282;2022-09-27T04:21:55;93594.19;;;15.42;100.00
6464;BME280;3265;42.694;23.282;2022-09-27T04:24:21;93594.16;;;15.47;100.00
6464;BME280;3265;42.694;23.282;2022-09-27T04:26:49;93597.03;;;15.51;100.00
6464;BME280;3265;42.694;23.282;2022-09-27T04:29:17;93599.66;;;15.46;100.00
6464;BME280;3265;42.694;23.282;2022-09-27T04:31:44;93589.50;;;15.39;100.00
6464;BME280;3265;42.694;23.282;2022-09-27T04:34:11;93595.75;;;15.43;100.00
6464;BME280;3265;42.694;23.282;2022-09-27T04:36:38;93607.00;;;15.49;100.00
6464;BME280;3265;42.694;23.282;2022-09-27T04:39:05;93603.31;;;15.45;100.00
6464;BME280;3265;42.694;23.282;2022-09-27T04:41:32;93600.72;;;15.50;100.00
6464;BME280;3265;42.694;23.282;2022-09-27T04:44:00;93598.09;;;15.50;100.00
6464;BME280;3265;42.694;23.282;2022-09-27T04:46:29;93611.09;;;15.60;100.00
6464;BME280;3265;42.694;23.282;2022-09-27T04:48:56;93609.34;;;15.50;100.00
6464;BME280;3265;42.694;23.282;2022-09-27T04:51:24;93608.25;;;15.56;100.00
6464;BME280;3265;42.694;23.282;2022-09-27T04:53:51;93608.47;;;15.60;100.00
6464;BME280;3265;42.694;23.282;2022-09-27T04:56:18;93616.69;;;15.48;100.00
6464;BME280;3265;42.694;23.282;2022-09-27T04:58:45;93612.38;;;15.23;100.00
6464;BME280;3265;42.694;23.282;2022-09-27T05:01:15;93605.75;;;14.92;100.00
6464;BME280;3265;42.694;23.282;2022-09-27T05:03:47;93602.38;;;14.92;100.00
6464;BME280;3265;42.694;23.282;2022-09-27T05:06:13;93596.06;;;14.98;100.00
6464;BME280;3265;42.694;23.282;2022-09-27T05:08:40;93584.50;;;15.04;100.00
6464;BME280;3265;42.694;23.282;2022-09-27T05:11:07;93589.69;;;15.14;100.00
6464;BME280;3265;42.694;23.282;2022-09-27T05:13:34;93582.38;;;15.11;100.00
6464;BME280;3265;42.694;23.282;2022-09-27T05:16:02;93579.66;;;15.26;100.00
6464;BME280;3265;42.694;23.282;2022-09-27T05:18:29;93564.41;;;15.33;100.00
6464;BME280;3265;42.694;23.282;2022-09-27T05:20:57;93571.72;;;15.36;100.00
6464;BME280;3265;42.694;23.282;2022-09-27T05:23:24;93572.78;;;15.35;100.00
6464;BME280;3265;42.694;23.282;2022-09-27T05:25:51;93565.72;;;15.30;100.00
6464;BME280;3265;42.694;23.282;2022-09-27T05:28:20;93563.06;;;15.35;100.00
6464;BME280;3265;42.694;23.282;2022-09-27T05:30:46;93560.94;;;15.43;100.00
6464;BME280;3265;42.694;23.282;2022-09-27T05:33:13;93566.69;;;15.50;100.00
6464;BME280;3265;42.694;23.282;2022-09-27T05:35:40;93560.31;;;15.56;100.00
6464;BME280;3265;42.694;23.282;2022-09-27T05:38:10;93562.91;;;15.61;100.00
6464;BME280;3265;42.694;23.282;2022-09-27T05:40:37;93570.97;;;15.64;100.00
6464;BME280;3265;42.694;23.282;2022-09-27T05:43:07;93586.69;;;15.64;100.00
6464;BME280;3265;42.694;23.282;2022-09-27T05:45:34;93577.25;;;15.68;100.00
6464;BME280;3265;42.694;23.282;2022-09-27T05:48:01;93572.84;;;15.64;100.00
6464;BME280;3265;42.694;23.282;2022-09-27T05:50:28;93583.25;;;15.69;100.00
6464;BME280;3265;42.694;23.282;2022-09-27T05:52:55;93583.50;;;15.72;100.00
6464;BME280;3265;42.694;23.282;2022-09-27T05:55:23;93578.63;;;15.61;100.00
6464;BME280;3265;42.694;23.282;2022-09-27T05:57:55;93583.56;;;15.62;100.00
6464;BME280;3265;42.694;23.282;2022-09-27T06:00:22;93588.25;;;15.65;100.00
6464;BME280;3265;42.694;23.282;2022-09-27T06:02:54;93588.50;;;15.69;100.00
6464;BME280;3265;42.694;23.282;2022-09-27T06:05:22;93594.00;;;15.67;100.00
6464;BME280;3265;42.694;23.282;2022-09-27T06:07:49;93594.09;;;15.57;100.00
6464;BME280;3265;42.694;23.282;2022-09-27T06:10:17;93603.53;;;15.58;100.00
6464;BME280;3265;42.694;23.282;2022-09-27T06:12:45;93595.09;;;15.61;100.00
6464;BME280;3265;42.694;23.282;2022-09-27T06:15:12;93584.84;;;15.65;100.00
6464;BME280;3265;42.694;23.282;2022-09-27T06:17:40;93596.22;;;15.55;100.00
6464;BME280;3265;42.694;23.282;2022-09-27T06:20:08;93598.78;;;15.60;100.00
6464;BME280;3265;42.694;23.282;2022-09-27T06:22:35;93596.81;;;15.76;100.00
6464;BME280;3265;42.694;23.282;2022-09-27T06:25:02;93584.13;;;15.88;100.00
6464;BME280;3265;42.694;23.282;2022-09-27T06:27:29;93570.03;;;15.84;100.00
6464;BME280;3265;42.694;23.282;2022-09-27T06:29:58;93589.59;;;15.92;100.00
6464;BME280;3265;42.694;23.282;2022-09-27T06:32:24;93582.78;;;15.90;100.00
6464;BME280;3265;42.694;23.282;2022-09-27T06:34:51;93588.56;;;15.93;100.00
6464;BME280;3265;42.694;23.282;2022-09-27T06:37:18;93582.03;;;15.90;100.00
6464;BME280;3265;42.694;23.282;2022-09-27T06:39:45;93576.50;;;15.92;100.00
6464;BME280;3265;42.694;23.282;2022-09-27T06:42:13;93567.41;;;15.84;100.00
6464;BME280;3265;42.694;23.282;2022-09-27T06:44:42;93579.72;;;15.83;100.00
6464;BME280;3265;42.694;23.282;2022-09-27T06:47:13;93598.84;;;15.84;100.00
6464;BME280;3265;42.694;23.282;2022-09-27T06:49:40;93597.22;;;15.88;100.00
6464;BME280;3265;42.694;23.282;2022-09-27T06:52:07;93577.00;;;15.94;100.00
6464;BME280;3265;42.694;23.282;2022-09-27T06:54:34;93562.28;;;15.98;100.00
6464;BME280;3265;42.694;23.282;2022-09-27T06:57:00;93554.38;;;16.03;100.00
6464;BME280;3265;42.694;23.282;2022-09-27T06:59:27;93570.56;;;16.10;100.00
6464;BME280;3265;42.694;23.282;2022-09-27T07:02:13;93600.19;;;16.10;100.00
6464;BME280;3265;42.694;23.282;2022-09-27T07:04:40;93596.41;;;16.16;100.00
6464;BME280;3265;42.694;23.282;2022-09-27T07:07:07;93599.03;;;16.16;100.00
6464;BME280;3265;42.694;23.282;2022-09-27T07:09:34;93598.00;;;16.17;100.00
6464;BME280;3265;42.694;23.282;2022-09-27T07:12:03;93586.50;;;16.13;100.00
6464;BME280;3265;42.694;23.282;2022-09-27T07:14:30;93589.91;;;16.14;100.00
6464;BME280;3265;42.694;23.282;2022-09-27T07:16:58;93587.00;;;16.15;100.00
6464;BME280;3265;42.694;23.282;2022-09-27T07:19:26;93601.72;;;16.11;100.00
6464;BME280;3265;42.694;23.282;2022-09-27T07:21:53;93605.00;;;15.98;100.00
6464;BME280;3265;42.694;23.282;2022-09-27T07:24:20;93609.19;;;15.99;100.00
6464;BME280;3265;42.694;23.282;2022-09-27T07:26:47;93609.97;;;16.00;100.00
6464;BME280;3265;42.694;23.282;2022-09-27T07:29:14;93619.63;;;16.04;100.00
6464;BME280;3265;42.694;23.282;2022-09-27T07:31:41;93618.13;;;15.98;100.00
6464;BME280;3265;42.694;23.282;2022-09-27T07:34:08;93618.19;;;15.88;100.00
6464;BME280;3265;42.694;23.282;2022-09-27T07:36:37;93617.69;;;15.86;100.00
6464;BME280;3265;42.694;23.282;2022-09-27T07:39:04;93594.44;;;15.79;100.00
6464;BME280;3265;42.694;23.282;2022-09-27T07:41:31;93610.75;;;16.00;100.00
6464;BME280;3265;42.694;23.282;2022-09-27T07:43:58;93607.53;;;16.08;100.00
6464;BME280;3265;42.694;23.282;2022-09-27T07:46:25;93614.00;;;16.16;100.00
6464;BME280;3265;42.694;23.282;2022-09-27T07:48:52;93618.25;;;16.12;100.00
6464;BME280;3265;42.694;23.282;2022-09-27T07:51:19;93608.81;;;16.11;100.00
6464;BME280;3265;42.694;23.282;2022-09-27T07:53:47;93596.88;;;16.23;100.00
6464;BME280;3265;42.694;23.282;2022-09-27T07:56:14;93597.63;;;16.29;100.00
6464;BME280;3265;42.694;23.282;2022-09-27T07:58:41;93601.09;;;16.24;100.00
6464;BME280;3265;42.694;23.282;2022-09-27T08:01:08;93596.03;;;16.28;100.00
6464;BME280;3265;42.694;23.282;2022-09-27T08:03:35;93581.38;;;16.27;100.00
6464;BME280;3265;42.694;23.282;2022-09-27T08:06:03;93587.50;;;16.17;100.00
6464;BME280;3265;42.694;23.282;2022-09-27T08:08:29;93604.63;;;16.33;100.00
6464;BME280;3265;42.694;23.282;2022-09-27T08:10:58;93612.22;;;16.35;100.00
6464;BME280;3265;42.694;23.282;2022-09-27T08:13:24;93596.03;;;16.28;100.00
6464;BME280;3265;42.694;23.282;2022-09-27T08:15:51;93601.72;;;16.11;100.00
6464;BME280;3265;42.694;23.282;2022-09-27T08:18:18;93567.53;;;15.69;100.00
6464;BME280;3265;42.694;23.282;2022-09-27T08:20:46;93579.13;;;15.63;100.00
6464;BME280;3265;42.694;23.282;2022-09-27T08:23:13;93588.38;;;15.50;100.00
6464;BME280;3265;42.694;23.282;2022-09-27T08:25:40;93581.25;;;15.61;100.00
6464;BME280;3265;42.694;23.282;2022-09-27T08:28:09;93577.78;;;15.65;100.00
6464;BME280;3265;42.694;23.282;2022-09-27T08:30:35;93576.81;;;15.85;100.00
6464;BME280;3265;42.694;23.282;2022-09-27T08:33:02;93570.66;;;16.00;100.00
6464;BME280;3265;42.694;23.282;2022-09-27T08:35:31;93564.25;;;16.11;100.00
6464;BME280;3265;42.694;23.282;2022-09-27T08:37:59;93561.84;;;16.38;100.00
6464;BME280;3265;42.694;23.282;2022-09-27T08:40:34;93562.34;;;16.64;100.00
6464;BME280;3265;42.694;23.282;2022-09-27T08:43:11;93563.84;;;16.88;100.00
6464;BME280;3265;42.694;23.282;2022-09-27T08:45:45;93550.81;;;17.02;100.00
6464;BME280;3265;42.694;23.282;2022-09-27T08:48:16;93567.13;;;17.36;100.00
6464;BME280;3265;42.694;23.282;2022-09-27T08:50:44;93569.09;;;17.63;100.00
6464;BME280;3265;42.694;23.282;2022-09-27T08:53:18;93563.88;;;17.90;100.00
6464;BME280;3265;42.694;23.282;2022-09-27T08:55:47;93575.50;;;18.17;100.00
6464;BME280;3265;42.694;23.282;2022-09-27T08:58:22;93573.88;;;18.34;100.00
6464;BME280;3265;42.694;23.282;2022-09-27T09:00:54;93568.03;;;18.51;100.00
6464;BME280;3265;42.694;23.282;2022-09-27T09:03:25;93571.25;;;18.61;100.00
6464;BME280;3265;42.694;23.282;2022-09-27T09:06:06;93567.91;;;18.83;100.00
6464;BME280;3265;42.694;23.282;2022-09-27T09:08:41;93572.19;;;18.93;100.00
6464;BME280;3265;42.694;23.282;2022-09-27T09:11:20;93561.31;;;19.08;100.00
6464;BME280;3265;42.694;23.282;2022-09-27T09:14:36;93574.16;;;19.23;100.00
6464;BME280;3265;42.694;23.282;2022-09-27T09:17:16;93578.00;;;19.53;100.00
6464;BME280;3265;42.694;23.282;2022-09-27T09:20:09;93561.13;;;19.85;100.00
6464;BME280;3265;42.694;23.282;2022-09-27T09:22:57;93568.44;;;19.88;100.00
6464;BME280;3265;42.694;23.282;2022-09-27T09:25:35;93557.31;;;19.68;100.00
6464;BME280;3265;42.694;23.282;2022-09-27T09:28:19;93546.94;;;19.27;100.00
6464;BME280;3265;42.694;23.282;2022-09-27T09:30:57;93541.19;;;18.90;100.00
6464;BME280;3265;42.694;23.282;2022-09-27T09:33:31;93552.06;;;19.33;100.00
6464;BME280;3265;42.694;23.282;2022-09-27T09:36:03;93541.88;;;19.84;100.00
6464;BME280;3265;42.694;23.282;2022-09-27T09:38:36;93548.22;;;20.36;100.00
6464;BME280;3265;42.694;23.282;2022-09-27T09:41:09;93545.38;;;20.80;100.00
6464;BME280;3265;42.694;23.282;2022-09-27T09:43:41;93552.59;;;21.14;100.00
6464;BME280;3265;42.694;23.282;2022-09-27T09:46:12;93573.75;;;21.57;100.00
6464;BME280;3265;42.694;23.282;2022-09-27T09:48:44;93569.81;;;21.97;100.00
6464;BME280;3265;42.694;23.282;2022-09-27T09:51:16;93561.91;;;21.72;100.00
6464;BME280;3265;42.694;23.282;2022-09-27T09:53:51;93576.53;;;21.61;100.00
6464;BME280;3265;42.694;23.282;2022-09-27T09:56:22;93561.16;;;21.45;100.00
6464;BME280;3265;42.694;23.282;2022-09-27T09:58:54;93563.97;;;21.40;100.00
6464;BME280;3265;42.694;23.282;2022-09-27T10:01:25;93563.34;;;21.18;100.00
6464;BME280;3265;42.694;23.282;2022-09-27T10:03:53;93562.22;;;21.10;100.00
6464;BME280;3265;42.694;23.282;2022-09-27T10:06:22;93560.75;;;20.87;100.00
6464;BME280;3265;42.694;23.282;2022-09-27T10:08:50;93547.66;;;20.56;100.00
6464;BME280;3265;42.694;23.282;2022-09-27T10:11:21;93541.66;;;20.25;100.00
6464;BME280;3265;42.694;23.282;2022-09-27T10:13:49;93538.31;;;20.11;100.00
6464;BME280;3265;42.694;23.282;2022-09-27T10:16:18;93523.75;;;20.22;100.00
6464;BME280;3265;42.694;23.282;2022-09-27T10:18:48;93530.06;;;20.43;100.00
6464;BME280;3265;42.694;23.282;2022-09-27T10:21:21;93521.88;;;20.62;100.00
6464;BME280;3265;42.694;23.282;2022-09-27T10:24:11;93530.94;;;20.86;100.00
6464;BME280;3265;42.694;23.282;2022-09-27T10:26:39;93520.06;;;21.05;100.00
6464;BME280;3265;42.694;23.282;2022-09-27T10:29:15;93537.03;;;21.21;100.00
6464;BME280;3265;42.694;23.282;2022-09-27T10:31:43;93516.38;;;21.15;100.00
6464;BME280;3265;42.694;23.282;2022-09-27T10:34:20;93516.81;;;21.34;100.00
6464;BME280;3265;42.694;23.282;2022-09-27T10:37:05;93522.72;;;21.39;100.00
6464;BME280;3265;42.694;23.282;2022-09-27T10:39:33;93521.81;;;21.44;100.00
6464;BME280;3265;42.694;23.282;2022-09-27T10:42:01;93523.97;;;21.50;100.00
6464;BME280;3265;42.694;23.282;2022-09-27T10:44:29;93520.41;;;21.55;100.00
6464;BME280;3265;42.694;23.282;2022-09-27T10:47:00;93520.56;;;22.14;100.00
6464;BME280;3265;42.694;23.282;2022-09-27T10:49:35;93524.72;;;22.90;100.00
6464;BME280;3265;42.694;23.282;2022-09-27T10:52:06;93521.13;;;23.57;97.44
6464;BME280;3265;42.694;23.282;2022-09-27T10:54:36;93514.38;;;23.59;96.00
6464;BME280;3265;42.694;23.282;2022-09-27T10:57:14;93495.00;;;23.05;98.03
6464;BME280;3265;42.694;23.282;2022-09-27T10:59:44;93486.22;;;23.13;99.55
6464;BME280;3265;42.694;23.282;2022-09-27T11:02:19;93482.63;;;23.84;94.15
6464;BME280;3265;42.694;23.282;2022-09-27T11:07:49;93493.63;;;24.43;90.93
6464;BME280;3265;42.694;23.282;2022-09-27T11:10:23;93484.66;;;24.83;90.39
6464;BME280;3265;42.694;23.282;2022-09-27T11:13:12;93494.63;;;25.26;87.75
6464;BME280;3265;42.694;23.282;2022-09-27T11:15:56;93470.34;;;24.88;84.61
6464;BME280;3265;42.694;23.282;2022-09-27T11:18:30;93478.91;;;24.81;85.87
6464;BME280;3265;42.694;23.282;2022-09-27T11:21:08;93484.78;;;24.63;88.25
6464;BME280;3265;42.694;23.282;2022-09-27T11:23:50;93476.13;;;24.54;87.07
6464;BME280;3265;42.694;23.282;2022-09-27T11:26:32;93469.72;;;24.55;87.91
6464;BME280;3265;42.694;23.282;2022-09-27T11:29:12;93466.69;;;24.08;89.02
6464;BME280;3265;42.694;23.282;2022-09-27T11:31:51;93447.63;;;24.26;89.47
6464;BME280;3265;42.694;23.282;2022-09-27T11:34:35;93455.75;;;24.70;89.21
6464;BME280;3265;42.694;23.282;2022-09-27T11:37:13;93457.53;;;25.46;86.74
6464;BME280;3265;42.694;23.282;2022-09-27T11:39:58;93439.25;;;25.87;83.69
6464;BME280;3265;42.694;23.282;2022-09-27T11:42:59;93436.34;;;26.08;81.79
6464;BME280;3265;42.694;23.282;2022-09-27T11:45:44;93446.78;;;26.64;78.72
6464;BME280;3265;42.694;23.282;2022-09-27T11:48:29;93436.69;;;27.27;74.94
6464;BME280;3265;42.694;23.282;2022-09-27T11:51:20;93438.03;;;27.55;74.16
6464;BME280;3265;42.694;23.282;2022-09-27T11:54:13;93433.19;;;28.29;74.67
6464;BME280;3265;42.694;23.282;2022-09-27T11:56:50;93432.09;;;28.56;70.63
6464;BME280;3265;42.694;23.282;2022-09-27T12:02:48;93434.69;;;29.68;65.37
6464;BME280;3265;42.694;23.282;2022-09-27T12:05:24;93428.94;;;30.07;64.05
6464;BME280;3265;42.694;23.282;2022-09-27T12:08:06;93406.72;;;30.50;64.35
6464;BME280;3265;42.694;23.282;2022-09-27T12:10:37;93413.22;;;31.11;62.48
6464;BME280;3265;42.694;23.282;2022-09-27T12:13:11;93425.59;;;31.47;61.25
6464;BME280;3265;42.694;23.282;2022-09-27T12:15:41;93434.16;;;31.81;58.39
6464;BME280;3265;42.694;23.282;2022-09-27T12:18:13;93413.88;;;32.15;57.55
6464;BME280;3265;42.694;23.282;2022-09-27T12:20:43;93419.63;;;32.07;58.99
6464;BME280;3265;42.694;23.282;2022-09-27T12:23:14;93410.41;;;32.43;56.57
6464;BME280;3265;42.694;23.282;2022-09-27T12:25:44;93391.59;;;32.64;56.35
6464;BME280;3265;42.694;23.282;2022-09-27T12:28:32;93392.34;;;32.72;57.29
6464;BME280;3265;42.694;23.282;2022-09-27T12:31:08;93393.84;;;32.83;52.83
6464;BME280;3265;42.694;23.282;2022-09-27T12:33:43;93373.41;;;33.00;51.98
6464;BME280;3265;42.694;23.282;2022-09-27T12:36:15;93391.81;;;33.23;52.32
6464;BME280;3265;42.694;23.282;2022-09-27T12:38:49;93381.50;;;32.93;46.58
6464;BME280;3265;42.694;23.282;2022-09-27T12:41:20;93369.16;;;33.02;45.37
6464;BME280;3265;42.694;23.282;2022-09-27T12:43:50;93354.59;;;32.93;46.98
6464;BME280;3265;42.694;23.282;2022-09-27T12:46:32;93355.31;;;32.97;44.74
6464;BME280;3265;42.694;23.282;2022-09-27T12:49:10;93346.59;;;32.43;43.80
6464;BME280;3265;42.694;23.282;2022-09-27T12:51:40;93336.66;;;32.23;43.79
6464;BME280;3265;42.694;23.282;2022-09-27T12:57:02;93340.47;;;31.97;44.24
6464;BME280;3265;42.694;23.282;2022-09-27T12:59:45;93327.00;;;31.55;46.93
6464;BME280;3265;42.694;23.282;2022-09-27T13:02:44;93341.63;;;31.92;45.22
6464;BME280;3265;42.694;23.282;2022-09-27T13:05:40;93355.47;;;31.91;45.61
6464;BME280;3265;42.694;23.282;2022-09-27T13:08:25;93364.72;;;32.11;48.18
6464;BME280;3265;42.694;23.282;2022-09-27T13:11:05;93365.03;;;32.45;45.72
6464;BME280;3265;42.694;23.282;2022-09-27T13:13:36;93365.03;;;32.55;44.72
6464;BME280;3265;42.694;23.282;2022-09-27T13:16:06;93360.03;;;32.65;43.46
6464;BME280;3265;42.694;23.282;2022-09-27T13:18:51;93369.56;;;33.01;43.19
6464;BME280;3265;42.694;23.282;2022-09-27T13:21:57;93379.63;;;32.76;42.92
6464;BME280;3265;42.694;23.282;2022-09-27T13:24:44;93352.72;;;32.47;43.92
6464;BME280;3265;42.694;23.282;2022-09-27T13:27:38;93345.06;;;31.79;44.68
6464;BME280;3265;42.694;23.282;2022-09-27T13:33:29;93351.97;;;32.01;46.20
6464;BME280;3265;42.694;23.282;2022-09-27T13:36:05;93346.53;;;31.34;46.93
6464;BME280;3265;42.694;23.282;2022-09-27T13:38:33;93341.66;;;32.03;46.02
6464;BME280;3265;42.694;23.282;2022-09-27T13:41:13;93338.94;;;31.82;45.88